createdAt,value
2017-10-25T00:01:52.414Z,100407.69
2017-10-25T00:04:18.767Z,100413.38
2017-10-25T00:06:45.161Z,100407.50
2017-10-25T00:09:11.564Z,100399.80
2017-10-25T00:11:38.653Z,100398.34
2017-10-25T00:14:05.202Z,100403.94
2017-10-25T00:16:31.709Z,100398.61
2017-10-25T00:18:58.046Z,100396.74
2017-10-25T00:21:24.400Z,100385.82
2017-10-25T00:23:50.903Z,100386.72
2017-10-25T00:26:17.233Z,100374.30
2017-10-25T00:28:43.629Z,100379.05
2017-10-25T00:31:10.747Z,100386.43
2017-10-25T00:33:37.050Z,100387.21
2017-10-25T00:36:03.402Z,100382.45
2017-10-25T00:38:29.846Z,100377.59
2017-10-25T00:40:56.177Z,100365.27
2017-10-25T00:43:22.447Z,100364.56
2017-10-25T00:45:49.894Z,100366.72
2017-10-25T00:48:17.007Z,100361.13
2017-10-25T00:50:43.367Z,100357.41
2017-10-25T00:53:09.745Z,100365.22
2017-10-25T00:55:36.094Z,100356.73
2017-10-25T00:58:02.484Z,100354.04
2017-10-25T01:00:29.747Z,100354.60
2017-10-25T01:02:56.122Z,100357.24
2017-10-25T01:05:22.540Z,100358.38
2017-10-25T01:07:48.908Z,100371.53
2017-10-25T01:10:15.323Z,100352.26
2017-10-25T01:12:41.718Z,100368.72
2017-10-25T01:15:08.035Z,100373.69
2017-10-25T01:17:35.129Z,100379.27
2017-10-25T01:20:02.355Z,100374.17
2017-10-25T01:22:28.888Z,100384.42
2017-10-25T01:24:55.223Z,100380.11
2017-10-25T01:27:21.574Z,100378.98
2017-10-25T01:29:47.980Z,100373.92
2017-10-25T01:32:14.465Z,100361.14
2017-10-25T01:34:40.757Z,100351.45
2017-10-25T01:37:07.062Z,100354.51
2017-10-25T01:39:33.459Z,100350.00
2017-10-25T01:41:59.777Z,100347.20
2017-10-25T01:44:26.339Z,100338.81
2017-10-25T01:46:52.637Z,100328.17
2017-10-25T01:49:18.929Z,100327.34
2017-10-25T01:51:45.285Z,100319.57
2017-10-25T01:54:11.604Z,100330.14
2017-10-25T01:56:37.953Z,100330.76
2017-10-25T01:59:04.367Z,100332.72
2017-10-25T02:01:30.725Z,100331.78
2017-10-25T02:03:57.130Z,100329.91
2017-10-25T02:06:23.482Z,100331.59
2017-10-25T02:08:49.798Z,100328.41
2017-10-25T02:11:16.173Z,100326.13
2017-10-25T02:13:42.476Z,100325.09
2017-10-25T02:16:08.792Z,100327.55
2017-10-25T02:18:35.153Z,100327.53
2017-10-25T02:21:01.512Z,100324.11
2017-10-25T02:23:28.606Z,100318.60
2017-10-25T02:25:54.927Z,100319.67
2017-10-25T02:28:21.266Z,100317.70
2017-10-25T02:30:47.612Z,100325.31
2017-10-25T02:33:13.907Z,100329.77
2017-10-25T02:35:41.040Z,100333.16
2017-10-25T02:38:08.111Z,100326.66
2017-10-25T02:40:35.155Z,100325.14
2017-10-25T02:43:02.337Z,100327.92
2017-10-25T02:45:28.769Z,100331.78
2017-10-25T02:47:55.146Z,100320.61
2017-10-25T02:50:21.548Z,100326.08
2017-10-25T02:52:47.872Z,100327.42
2017-10-25T02:55:14.203Z,100329.80
2017-10-25T02:57:40.573Z,100332.28
2017-10-25T03:00:06.933Z,100323.58
2017-10-25T03:02:33.348Z,100325.81
2017-10-25T03:05:00.420Z,100318.33
2017-10-25T03:07:26.789Z,100321.93
2017-10-25T03:09:53.170Z,100315.52
2017-10-25T03:12:20.224Z,100322.06
2017-10-25T03:14:46.670Z,100323.08
2017-10-25T03:17:13.050Z,100314.78
2017-10-25T03:19:46.443Z,100309.88
2017-10-25T03:22:12.861Z,100312.38
2017-10-25T03:24:39.261Z,100307.36
2017-10-25T03:27:05.597Z,100310.23
2017-10-25T03:29:31.917Z,100319.58
2017-10-25T03:31:58.560Z,100310.23
2017-10-25T03:34:24.861Z,100320.61
2017-10-25T03:36:51.980Z,100317.38
2017-10-25T03:39:18.390Z,100319.30
2017-10-25T03:41:44.739Z,100315.34
2017-10-25T03:44:11.064Z,100321.39
2017-10-25T03:46:38.599Z,100325.35
2017-10-25T03:49:04.942Z,100328.88
2017-10-25T03:51:31.324Z,100319.56
2017-10-25T03:53:57.743Z,100333.78
2017-10-25T03:56:24.094Z,100323.69
2017-10-25T03:58:50.448Z,100322.45
2017-10-25T04:01:17.576Z,100316.39
2017-10-25T04:03:43.919Z,100315.07
2017-10-25T04:06:11.040Z,100320.84
2017-10-25T04:08:38.104Z,100321.33
2017-10-25T04:11:04.458Z,100341.25
2017-10-25T04:13:31.569Z,100332.95
2017-10-25T04:15:58.023Z,100326.95
2017-10-25T04:18:25.176Z,100323.56
2017-10-25T04:20:52.351Z,100319.59
2017-10-25T04:23:18.795Z,100327.79
2017-10-25T04:25:45.136Z,100315.54
2017-10-25T04:28:11.470Z,100316.66
2017-10-25T04:30:37.791Z,100313.25
2017-10-25T04:33:04.244Z,100312.74
2017-10-25T04:35:30.690Z,100303.38
2017-10-25T04:37:57.096Z,100307.61
2017-10-25T04:40:23.485Z,100299.81
2017-10-25T04:42:50.618Z,100305.34
2017-10-25T04:45:17.060Z,100308.05
2017-10-25T04:47:43.447Z,100308.60
2017-10-25T04:50:09.766Z,100302.74
2017-10-25T04:52:36.136Z,100303.84
2017-10-25T04:55:02.553Z,100301.36
2017-10-25T04:57:28.936Z,100302.06
2017-10-25T04:59:56.049Z,100304.06
2017-10-25T05:02:22.373Z,100294.27
2017-10-25T05:04:48.861Z,100292.17
2017-10-25T05:07:15.265Z,100287.23
2017-10-25T05:09:41.684Z,100287.72
2017-10-25T05:12:08.213Z,100290.02
2017-10-25T05:14:34.643Z,100285.57
2017-10-25T05:17:01.045Z,100287.59
2017-10-25T05:19:27.561Z,100283.40
2017-10-25T05:21:54.023Z,100279.59
2017-10-25T05:24:20.452Z,100279.02
2017-10-25T05:26:46.873Z,100278.59
2017-10-25T05:29:13.972Z,100276.04
2017-10-25T05:31:40.463Z,100275.63
2017-10-25T05:34:06.794Z,100273.32
2017-10-25T05:36:33.230Z,100277.20
2017-10-25T05:38:59.587Z,100272.41
2017-10-25T05:41:25.968Z,100278.69
2017-10-25T05:43:52.356Z,100282.73
2017-10-25T05:46:18.722Z,100286.97
2017-10-25T05:48:45.138Z,100286.69
2017-10-25T05:51:11.443Z,100280.48
2017-10-25T05:53:37.836Z,100282.23
2017-10-25T05:56:04.177Z,100291.21
2017-10-25T05:58:30.531Z,100294.41
2017-10-25T06:00:56.829Z,100299.11
2017-10-25T06:03:23.891Z,100286.61
2017-10-25T06:05:50.969Z,100306.50
2017-10-25T06:08:17.285Z,100314.03
2017-10-25T06:10:43.775Z,100311.84
2017-10-25T06:13:10.153Z,100308.31
2017-10-25T06:15:36.438Z,100308.05
2017-10-25T06:18:02.726Z,100314.09
2017-10-25T06:20:29.184Z,100303.27
2017-10-25T06:22:55.534Z,100315.22
2017-10-25T06:25:21.818Z,100313.19
2017-10-25T06:27:48.170Z,100314.97
2017-10-25T06:30:14.459Z,100313.25
2017-10-25T06:32:40.739Z,100318.70
2017-10-25T06:35:07.202Z,100326.86
2017-10-25T06:37:34.293Z,100326.84
2017-10-25T06:40:00.762Z,100325.19
2017-10-25T06:42:27.064Z,100318.70
2017-10-25T06:45:00.305Z,100321.20
2017-10-25T06:47:26.587Z,100314.16
2017-10-25T06:49:52.890Z,100317.16
2017-10-25T06:52:19.890Z,100304.94
2017-10-25T06:54:46.199Z,100312.94
2017-10-25T06:57:12.527Z,100310.91
2017-10-25T06:59:38.829Z,100310.67
2017-10-25T07:02:05.309Z,100319.90
2017-10-25T07:04:31.606Z,100317.87
2017-10-25T07:06:57.981Z,100322.98
2017-10-25T07:09:24.282Z,100317.22
2017-10-25T07:11:50.621Z,100319.97
2017-10-25T07:14:17.025Z,100327.70
2017-10-25T07:16:43.308Z,100338.44
2017-10-25T07:19:10.376Z,100338.87
2017-10-25T07:21:36.802Z,100333.14
2017-10-25T07:24:03.176Z,100332.14
2017-10-25T07:26:29.552Z,100343.31
2017-10-25T07:28:55.837Z,100342.75
2017-10-25T07:31:22.146Z,100342.84
2017-10-25T07:33:49.218Z,100343.18
2017-10-25T07:36:15.840Z,100336.52
2017-10-25T07:38:42.848Z,100327.44
2017-10-25T07:41:09.142Z,100323.75
2017-10-25T07:43:35.402Z,100334.88
2017-10-25T07:46:01.788Z,100333.88
2017-10-25T07:48:28.125Z,100334.97
2017-10-25T07:50:54.419Z,100347.28
2017-10-25T07:53:20.750Z,100352.75
2017-10-25T07:55:47.118Z,100347.02
2017-10-25T07:58:13.482Z,100345.94
2017-10-25T08:00:39.821Z,100351.10
2017-10-25T08:03:06.169Z,100352.98
2017-10-25T08:05:32.548Z,100344.23
2017-10-25T08:07:58.984Z,100353.52
2017-10-25T08:10:25.450Z,100347.41
2017-10-25T08:12:52.066Z,100349.80
2017-10-25T08:15:18.405Z,100341.25
2017-10-25T08:17:44.718Z,100337.34
2017-10-25T08:20:11.653Z,100337.10
2017-10-25T08:22:38.778Z,100330.57
2017-10-25T08:25:05.165Z,100334.84
2017-10-25T08:27:31.443Z,100325.28
2017-10-25T08:29:57.803Z,100325.45
2017-10-25T08:32:24.166Z,100335.14
2017-10-25T08:34:50.462Z,100328.25
2017-10-25T08:37:17.771Z,100318.06
2017-10-25T08:39:44.118Z,100329.47
2017-10-25T08:42:10.796Z,100320.73
2017-10-25T08:44:37.167Z,100321.75
2017-10-25T08:47:03.533Z,100312.59
2017-10-25T08:49:29.910Z,100310.08
2017-10-25T08:51:56.760Z,100314.23
2017-10-25T08:54:23.117Z,100316.98
2017-10-25T08:56:49.540Z,100304.80
2017-10-25T08:59:17.573Z,100310.65
2017-10-25T09:01:44.040Z,100308.55
2017-10-25T09:04:10.481Z,100300.67
2017-10-25T09:06:37.345Z,100303.30
2017-10-25T09:09:03.738Z,100297.30
2017-10-25T09:11:30.079Z,100295.42
2017-10-25T09:13:56.394Z,100295.44
2017-10-25T09:16:22.991Z,100310.60
2017-10-25T09:18:50.116Z,100299.30
2017-10-25T09:21:16.422Z,100295.13
2017-10-25T09:23:43.251Z,100296.16
2017-10-25T09:26:09.650Z,100296.73
2017-10-25T09:28:36.735Z,100300.14
2017-10-25T09:31:03.054Z,100299.09
2017-10-25T09:33:29.410Z,100308.14
2017-10-25T09:35:55.752Z,100297.98
2017-10-25T09:38:22.076Z,100285.83
2017-10-25T09:40:48.462Z,100287.72
2017-10-25T09:43:15.496Z,100283.44
2017-10-25T09:45:42.909Z,100287.47
2017-10-25T09:48:09.939Z,100284.20
2017-10-25T09:50:36.392Z,100278.67
2017-10-25T09:53:02.737Z,100280.13
2017-10-25T09:55:29.099Z,100270.24
2017-10-25T09:57:56.152Z,100282.00
2017-10-25T10:00:23.302Z,100285.73
2017-10-25T10:02:50.420Z,100291.05
2017-10-25T10:05:16.742Z,100302.01
2017-10-25T10:07:43.074Z,100296.30
2017-10-25T10:10:09.624Z,100292.31
2017-10-25T10:12:35.979Z,100284.54
2017-10-25T10:15:03.195Z,100281.61
2017-10-25T10:17:29.651Z,100287.96
2017-10-25T10:19:56.037Z,100276.27
2017-10-25T10:22:22.535Z,100291.13
2017-10-25T10:24:49.653Z,100303.70
2017-10-25T10:27:15.947Z,100298.98
2017-10-25T10:29:42.373Z,100289.42
2017-10-25T10:32:08.611Z,100279.58
2017-10-25T10:34:34.995Z,100281.44
2017-10-25T10:37:01.296Z,100285.17
2017-10-25T10:39:28.439Z,100286.07
2017-10-25T10:41:54.929Z,100279.53
2017-10-25T10:44:21.537Z,100276.03
2017-10-25T10:46:47.926Z,100277.05
2017-10-25T10:49:15.298Z,100285.34
2017-10-25T10:51:41.955Z,100287.17
2017-10-25T10:54:08.348Z,100273.76
2017-10-25T10:56:34.741Z,100268.53
2017-10-25T10:59:01.181Z,100256.12
2017-10-25T11:01:27.544Z,100258.55
2017-10-25T11:03:53.918Z,100256.65
2017-10-25T11:06:20.338Z,100248.30
2017-10-25T11:08:46.884Z,100238.22
2017-10-25T11:11:13.388Z,100238.45
2017-10-25T11:13:39.823Z,100246.78
2017-10-25T11:16:06.207Z,100256.31
2017-10-25T11:18:32.982Z,100249.55
2017-10-25T11:20:59.354Z,100255.27
2017-10-25T11:23:25.674Z,100245.26
2017-10-25T11:25:52.103Z,100239.87
2017-10-25T11:28:18.574Z,100247.28
2017-10-25T11:30:45.071Z,100244.91
2017-10-25T11:33:11.391Z,100241.63
2017-10-25T11:35:37.778Z,100234.83
2017-10-25T11:38:04.245Z,100240.52
2017-10-25T11:40:30.669Z,100227.42
2017-10-25T11:42:57.892Z,100234.42
2017-10-25T11:45:24.305Z,100232.49
2017-10-25T11:47:50.766Z,100232.58
2017-10-25T11:50:17.315Z,100231.26
2017-10-25T11:52:44.432Z,100230.78
2017-10-25T11:55:12.019Z,100237.91
2017-10-25T11:57:38.482Z,100238.84
2017-10-25T12:00:04.940Z,100237.05
2017-10-25T12:02:31.420Z,100235.83
2017-10-25T12:04:57.810Z,100235.25
2017-10-25T12:07:24.157Z,100240.53
2017-10-25T12:09:50.498Z,100253.77
2017-10-25T12:12:16.950Z,100239.85
2017-10-25T12:14:43.412Z,100250.67
2017-10-25T12:17:10.465Z,100242.59
2017-10-25T12:19:36.750Z,100246.04
2017-10-25T12:22:03.051Z,100251.52
2017-10-25T12:24:29.613Z,100251.16
2017-10-25T12:26:55.916Z,100256.75
2017-10-25T12:29:23.648Z,100259.42
2017-10-25T12:31:50.749Z,100263.80
2017-10-25T12:34:17.117Z,100243.77
2017-10-25T12:36:44.191Z,100238.42
2017-10-25T12:39:10.532Z,100241.45
2017-10-25T12:41:36.900Z,100229.31
2017-10-25T12:44:03.259Z,100237.72
2017-10-25T12:46:30.415Z,100240.00
2017-10-25T12:48:57.525Z,100236.53
2017-10-25T12:51:23.853Z,100250.25
2017-10-25T12:53:50.190Z,100257.87
2017-10-25T12:56:17.394Z,100245.66
2017-10-25T12:58:43.774Z,100247.29
2017-10-25T13:01:10.268Z,100251.55
2017-10-25T13:03:36.555Z,100248.38
2017-10-25T13:06:02.973Z,100246.61
2017-10-25T13:08:29.272Z,100244.95
2017-10-25T13:11:17.429Z,100236.98
2017-10-25T13:17:04.613Z,100229.63
2017-10-25T13:19:31.744Z,100228.39
2017-10-25T13:21:58.094Z,100233.36
2017-10-25T13:24:24.576Z,100224.64
2017-10-25T13:26:50.990Z,100231.58
2017-10-25T13:29:17.471Z,100221.45
2017-10-25T13:31:44.729Z,100224.36
2017-10-25T13:34:11.961Z,100226.23
2017-10-25T13:36:38.345Z,100230.06
2017-10-25T13:39:05.645Z,100220.67
2017-10-25T13:41:32.227Z,100226.64
2017-10-25T13:43:59.487Z,100240.23
2017-10-25T13:46:25.787Z,100234.64
2017-10-25T13:48:52.194Z,100236.36
2017-10-25T13:51:18.671Z,100230.22
2017-10-25T13:53:45.071Z,100232.50
2017-10-25T13:56:11.556Z,100222.86
2017-10-25T13:58:38.607Z,100221.66
2017-10-25T14:01:05.785Z,100233.23
2017-10-25T14:03:32.334Z,100230.63
2017-10-25T14:05:58.675Z,100226.41
2017-10-25T14:08:25.084Z,100227.09
2017-10-25T14:10:51.596Z,100228.98
2017-10-25T14:13:18.734Z,100243.64
2017-10-25T14:15:45.772Z,100240.58
2017-10-25T14:18:13.028Z,100244.06
2017-10-25T14:20:40.086Z,100250.63
2017-10-25T14:23:07.149Z,100248.00
2017-10-25T14:25:33.492Z,100246.34
2017-10-25T14:28:18.575Z,100244.75
2017-10-25T14:30:45.062Z,100240.23
2017-10-25T14:33:11.416Z,100251.27
2017-10-25T14:35:37.966Z,100256.61
2017-10-25T14:38:04.286Z,100257.11
2017-10-25T14:40:30.630Z,100247.69
2017-10-25T14:42:56.988Z,100248.46
2017-10-25T14:45:23.443Z,100250.81
2017-10-25T14:47:49.810Z,100253.79
2017-10-25T14:50:16.191Z,100249.06
2017-10-25T14:52:42.618Z,100251.19
2017-10-25T14:55:09.047Z,100262.85
2017-10-25T14:57:35.447Z,100266.54
2017-10-25T15:00:01.839Z,100270.45
2017-10-25T15:02:28.218Z,100262.74
2017-10-25T15:04:54.717Z,100267.88
2017-10-25T15:07:21.904Z,100270.97
2017-10-25T15:09:48.322Z,100273.41
2017-10-25T15:12:15.486Z,100274.56
2017-10-25T15:14:42.797Z,100270.49
2017-10-25T15:17:09.964Z,100284.98
2017-10-25T15:19:36.362Z,100278.21
2017-10-25T15:22:02.804Z,100281.91
2017-10-25T15:24:29.257Z,100285.98
2017-10-25T15:26:56.542Z,100287.42
2017-10-25T15:29:22.902Z,100301.83
2017-10-25T15:31:49.230Z,100288.00
2017-10-25T15:34:15.595Z,100282.95
2017-10-25T15:36:42.804Z,100278.53
2017-10-25T15:39:09.293Z,100279.34
2017-10-25T15:41:35.867Z,100287.44
2017-10-25T15:44:02.514Z,100304.55
2017-10-25T15:46:28.889Z,100298.69
2017-10-25T15:48:55.390Z,100305.02
2017-10-25T15:51:21.837Z,100291.97
2017-10-25T15:53:48.323Z,100289.93
2017-10-25T15:56:15.516Z,100290.34
2017-10-25T15:58:42.080Z,100285.99
2017-10-25T16:01:08.706Z,100285.08
2017-10-25T16:03:35.138Z,100280.45
2017-10-25T16:06:01.525Z,100291.60
2017-10-25T16:08:29.736Z,100287.95
2017-10-25T16:10:56.175Z,100290.95
2017-10-25T16:13:23.447Z,100288.86
2017-10-25T16:15:50.666Z,100295.90
2017-10-25T16:18:17.199Z,100301.58
2017-10-25T16:20:43.715Z,100312.41
2017-10-25T16:23:10.106Z,100316.68
2017-10-25T16:25:36.553Z,100319.28
2017-10-25T16:28:02.962Z,100322.61
2017-10-25T16:30:29.289Z,100319.86
2017-10-25T16:32:55.799Z,100315.75
2017-10-25T16:35:22.200Z,100315.97
2017-10-25T16:37:49.413Z,100302.75
2017-10-25T16:40:15.878Z,100304.28
2017-10-25T16:42:42.462Z,100282.64
2017-10-25T16:45:08.862Z,100298.91
2017-10-25T16:47:35.982Z,100303.09
2017-10-25T16:50:02.558Z,100304.08
2017-10-25T16:52:29.285Z,100306.76
2017-10-25T16:54:55.831Z,100303.06
2017-10-25T16:57:22.921Z,100313.20
2017-10-25T16:59:49.529Z,100312.36
2017-10-25T17:02:16.005Z,100322.06
2017-10-25T17:04:42.431Z,100324.72
2017-10-25T17:07:08.803Z,100335.86
2017-10-25T17:09:35.239Z,100334.72
2017-10-25T17:12:01.675Z,100334.02
2017-10-25T17:14:28.877Z,100333.89
2017-10-25T17:16:55.236Z,100341.31
2017-10-25T17:19:22.519Z,100335.94
2017-10-25T17:21:49.121Z,100344.31
2017-10-25T17:24:15.482Z,100326.39
2017-10-25T17:26:42.065Z,100344.00
2017-10-25T17:29:08.530Z,100350.31
2017-10-25T17:31:34.942Z,100349.97
2017-10-25T17:34:01.402Z,100354.64
2017-10-25T17:36:27.908Z,100355.97
2017-10-25T17:38:54.539Z,100354.19
2017-10-25T17:41:20.938Z,100358.09
2017-10-25T17:43:47.352Z,100356.88
2017-10-25T17:46:13.850Z,100356.88
2017-10-25T17:48:41.722Z,100362.11
2017-10-25T17:51:08.203Z,100356.31
2017-10-25T17:53:34.655Z,100367.30
2017-10-25T17:56:01.245Z,100366.11
2017-10-25T17:58:27.677Z,100375.48
2017-10-25T18:00:54.654Z,100372.98
2017-10-25T18:03:21.028Z,100363.84
2017-10-25T18:05:47.460Z,100381.63
2017-10-25T18:08:14.078Z,100387.80
2017-10-25T18:10:40.499Z,100384.62
2017-10-25T18:13:06.925Z,100381.48
2017-10-25T18:15:34.038Z,100379.85
2017-10-25T18:18:00.893Z,100358.97
2017-10-25T18:20:27.458Z,100365.70
2017-10-25T18:22:53.854Z,100378.11
2017-10-25T18:25:20.237Z,100385.44
2017-10-25T18:27:46.684Z,100385.51
2017-10-25T18:30:14.127Z,100380.56
2017-10-25T18:32:42.479Z,100395.91
2017-10-25T18:35:08.818Z,100393.98
2017-10-25T18:37:35.803Z,100406.40
2017-10-25T18:40:02.259Z,100402.15
2017-10-25T18:42:28.589Z,100412.93
2017-10-25T18:44:55.035Z,100410.63
2017-10-25T18:47:21.668Z,100412.16
2017-10-25T18:49:48.201Z,100414.34
2017-10-25T18:52:22.467Z,100414.12
2017-10-25T18:54:50.489Z,100412.58
2017-10-25T18:57:16.927Z,100424.42
2017-10-25T18:59:43.394Z,100422.16
2017-10-25T19:02:09.716Z,100427.09
2017-10-25T19:04:36.367Z,100437.37
2017-10-25T19:07:04.982Z,100434.28
2017-10-25T19:09:31.348Z,100437.53
2017-10-25T19:11:57.787Z,100446.58
2017-10-25T19:14:24.296Z,100446.16
2017-10-25T19:16:50.817Z,100448.10
2017-10-25T19:19:17.291Z,100455.73
2017-10-25T19:21:52.461Z,100450.86
2017-10-25T19:24:18.840Z,100450.53
2017-10-25T19:26:52.291Z,100454.30
2017-10-25T19:29:18.780Z,100450.39
2017-10-25T19:31:45.253Z,100449.97
2017-10-25T19:34:16.975Z,100450.27
2017-10-25T19:36:43.378Z,100462.61
2017-10-25T19:39:09.856Z,100461.72
2017-10-25T19:41:36.325Z,100467.27
2017-10-25T19:44:02.793Z,100464.41
2017-10-25T19:47:01.251Z,100482.55
2017-10-25T19:49:27.694Z,100477.03
2017-10-25T19:51:54.046Z,100471.80
2017-10-25T19:54:20.376Z,100474.94
2017-10-25T19:56:46.752Z,100478.84
2017-10-25T19:59:13.253Z,100476.76
2017-10-25T20:01:39.647Z,100488.17
2017-10-25T20:04:06.016Z,100496.11
2017-10-25T20:06:32.513Z,100507.05
2017-10-25T20:08:58.930Z,100487.42
2017-10-25T20:11:26.290Z,100485.19
2017-10-25T20:13:53.465Z,100490.48
2017-10-25T20:16:20.010Z,100488.66
2017-10-25T20:18:46.503Z,100494.92
2017-10-25T20:21:12.917Z,100497.23
2017-10-25T20:23:39.355Z,100500.22
2017-10-25T20:26:05.856Z,100492.37
2017-10-25T20:28:32.810Z,100498.06
2017-10-25T20:30:59.298Z,100494.36
2017-10-25T20:33:26.226Z,100496.66
2017-10-25T20:35:52.652Z,100502.09
2017-10-25T20:38:19.855Z,100496.98
2017-10-25T20:40:46.208Z,100499.50
2017-10-25T20:43:13.288Z,100498.21
2017-10-25T20:45:40.435Z,100505.66
2017-10-25T20:48:06.834Z,100509.70
2017-10-25T20:50:33.290Z,100521.05
2017-10-25T20:52:59.687Z,100524.77
2017-10-25T20:55:26.040Z,100529.50
2017-10-25T20:57:52.441Z,100522.03
2017-10-25T21:00:18.777Z,100522.28
2017-10-25T21:02:45.102Z,100526.09
2017-10-25T21:05:11.564Z,100535.98
2017-10-25T21:07:38.037Z,100529.97
2017-10-25T21:10:05.123Z,100530.38
2017-10-25T21:12:31.442Z,100536.09
2017-10-25T21:14:57.950Z,100529.34
2017-10-25T21:17:24.508Z,100531.44
2017-10-25T21:19:51.801Z,100540.00
2017-10-25T21:22:18.326Z,100536.73
2017-10-25T21:24:44.751Z,100546.70
2017-10-25T21:27:11.199Z,100550.61
2017-10-25T21:29:37.569Z,100558.98
2017-10-25T21:32:03.968Z,100557.07
2017-10-25T21:34:30.421Z,100563.91
2017-10-25T21:36:58.219Z,100558.91
2017-10-25T21:39:25.319Z,100559.33
2017-10-25T21:41:51.714Z,100563.21
2017-10-25T21:44:18.111Z,100557.62
2017-10-25T21:46:44.660Z,100564.89
2017-10-25T21:49:11.829Z,100559.66
2017-10-25T21:51:39.245Z,100564.66
2017-10-25T21:54:06.566Z,100567.80
2017-10-25T21:56:33.174Z,100581.80
2017-10-25T21:58:59.618Z,100576.41
2017-10-25T22:01:26.090Z,100575.55
2017-10-25T22:03:52.572Z,100575.67
2017-10-25T22:06:19.838Z,100582.94
2017-10-25T22:08:46.958Z,100581.15
2017-10-25T22:11:13.361Z,100588.61
2017-10-25T22:13:39.853Z,100586.88
2017-10-25T22:16:06.997Z,100596.31
2017-10-25T22:18:34.117Z,100592.05
2017-10-25T22:21:00.557Z,100582.38
2017-10-25T22:23:26.957Z,100583.91
2017-10-25T22:25:53.383Z,100592.52
2017-10-25T22:28:19.742Z,100596.55
2017-10-25T22:30:46.148Z,100604.55
2017-10-25T22:33:12.503Z,100599.80
2017-10-25T22:35:38.879Z,100599.94
2017-10-25T22:38:06.373Z,100593.31
2017-10-25T22:40:33.659Z,100599.50
2017-10-25T22:43:00.104Z,100591.57
2017-10-25T22:45:26.458Z,100599.52
2017-10-25T22:47:52.924Z,100604.08
2017-10-25T22:50:19.376Z,100608.17
2017-10-25T22:52:45.934Z,100599.30
2017-10-25T22:55:13.299Z,100602.95
2017-10-25T22:57:39.644Z,100591.03
2017-10-25T23:00:06.160Z,100586.09
2017-10-25T23:02:32.600Z,100589.53
2017-10-25T23:04:59.772Z,100596.94
2017-10-25T23:07:26.111Z,100596.50
2017-10-25T23:09:52.497Z,100600.22
2017-10-25T23:12:18.832Z,100594.56
2017-10-25T23:14:46.085Z,100588.19
2017-10-25T23:17:12.515Z,100587.00
2017-10-25T23:19:40.001Z,100598.95
2017-10-25T23:22:06.376Z,100602.99
2017-10-25T23:24:32.850Z,100600.40
2017-10-25T23:26:59.291Z,100596.62
2017-10-25T23:29:25.630Z,100597.28
2017-10-25T23:31:51.990Z,100586.93
2017-10-25T23:34:18.474Z,100591.00
2017-10-25T23:36:45.642Z,100597.17
2017-10-25T23:39:11.983Z,100606.59
2017-10-25T23:41:38.362Z,100606.02
2017-10-25T23:44:04.909Z,100592.84
2017-10-25T23:46:31.372Z,100598.74
2017-10-25T23:48:57.827Z,100599.84
2017-10-25T23:51:24.156Z,100602.74
2017-10-25T23:53:50.547Z,100606.70
2017-10-25T23:56:16.935Z,100606.59
2017-10-25T23:58:43.345Z,100608.55
